sensor_id;sensor_type;location;lat;lon;timestamp;temperature;humidity
25280;DHT22;13225;47.804;12.116;2023-04-25T00:01:40;7.50;99.90
25280;DHT22;13225;47.804;12.116;2023-04-25T00:04:07;7.50;99.90
25280;DHT22;13225;47.804;12.116;2023-04-25T00:06:34;7.60;99.90
25280;DHT22;13225;47.804;12.116;2023-04-25T00:09:02;7.60;99.90
25280;DHT22;13225;47.804;12.116;2023-04-25T00:11:28;7.60;99.90
25280;DHT22;13225;47.804;12.116;2023-04-25T00:13:56;7.50;99.90
25280;DHT22;13225;47.804;12.116;2023-04-25T00:16:22;7.60;99.90
25280;DHT22;13225;47.804;12.116;2023-04-25T00:18:49;7.50;99.90
25280;DHT22;13225;47.804;12.116;2023-04-25T00:21:18;7.60;99.90
25280;DHT22;13225;47.804;12.116;2023-04-25T00:23:45;7.60;99.90
25280;DHT22;13225;47.804;12.116;2023-04-25T00:26:11;7.60;99.90
25280;DHT22;13225;47.804;12.116;2023-04-25T00:28:37;7.60;99.90
25280;DHT22;13225;47.804;12.116;2023-04-25T00:31:03;7.60;99.90
25280;DHT22;13225;47.804;12.116;2023-04-25T00:33:29;7.60;99.90
25280;DHT22;13225;47.804;12.116;2023-04-25T00:35:55;7.60;99.90
25280;DHT22;13225;47.804;12.116;2023-04-25T00:38:21;7.60;99.90
25280;DHT22;13225;47.804;12.116;2023-04-25T00:40:47;7.60;99.90
25280;DHT22;13225;47.804;12.116;2023-04-25T00:43:12;7.50;99.90
25280;DHT22;13225;47.804;12.116;2023-04-25T00:45:39;7.50;99.90
25280;DHT22;13225;47.804;12.116;2023-04-25T00:48:05;7.50;99.90
25280;DHT22;13225;47.804;12.116;2023-04-25T00:50:33;7.50;99.90
25280;DHT22;13225;47.804;12.116;2023-04-25T00:52:59;7.50;99.90
25280;DHT22;13225;47.804;12.116;2023-04-25T00:55:25;7.50;99.90
25280;DHT22;13225;47.804;12.116;2023-04-25T00:57:51;7.50;99.90
25280;DHT22;13225;47.804;12.116;2023-04-25T01:00:17;7.60;99.90
25280;DHT22;13225;47.804;12.116;2023-04-25T01:02:43;7.60;99.90
25280;DHT22;13225;47.804;12.116;2023-04-25T01:05:10;7.60;99.90
25280;DHT22;13225;47.804;12.116;2023-04-25T01:07:37;7.60;99.90
25280;DHT22;13225;47.804;12.116;2023-04-25T01:10:04;7.60;99.90
25280;DHT22;13225;47.804;12.116;2023-04-25T01:12:30;7.60;99.90
25280;DHT22;13225;47.804;12.116;2023-04-25T01:14:56;7.70;99.90
25280;DHT22;13225;47.804;12.116;2023-04-25T01:17:22;7.70;99.90
25280;DHT22;13225;47.804;12.116;2023-04-25T01:19:47;7.70;99.90
25280;DHT22;13225;47.804;12.116;2023-04-25T01:22:14;7.70;99.90
25280;DHT22;13225;47.804;12.116;2023-04-25T01:24:40;7.70;99.90
25280;DHT22;13225;47.804;12.116;2023-04-25T01:27:06;7.70;99.90
25280;DHT22;13225;47.804;12.116;2023-04-25T01:29:32;7.60;99.90
25280;DHT22;13225;47.804;12.116;2023-04-25T01:31:59;7.60;99.90
25280;DHT22;13225;47.804;12.116;2023-04-25T01:34:24;7.60;99.90
25280;DHT22;13225;47.804;12.116;2023-04-25T01:36:51;7.60;99.90
25280;DHT22;13225;47.804;12.116;2023-04-25T01:39:18;7.60;99.90
25280;DHT22;13225;47.804;12.116;2023-04-25T01:41:48;7.60;99.90
25280;DHT22;13225;47.804;12.116;2023-04-25T01:44:14;7.60;99.90
25280;DHT22;13225;47.804;12.116;2023-04-25T01:46:40;7.50;99.90
25280;DHT22;13225;47.804;12.116;2023-04-25T01:49:06;7.50;99.90
25280;DHT22;13225;47.804;12.116;2023-04-25T01:51:32;7.50;99.90
25280;DHT22;13225;47.804;12.116;2023-04-25T01:53:58;7.50;99.90
25280;DHT22;13225;47.804;12.116;2023-04-25T01:56:24;7.50;99.90
25280;DHT22;13225;47.804;12.116;2023-04-25T01:58:51;7.50;99.90
25280;DHT22;13225;47.804;12.116;2023-04-25T02:01:16;7.50;99.90
25280;DHT22;13225;47.804;12.116;2023-04-25T02:03:42;7.50;99.90
25280;DHT22;13225;47.804;12.116;2023-04-25T02:06:08;7.50;99.90
25280;DHT22;13225;47.804;12.116;2023-04-25T02:08:33;7.50;99.90
25280;DHT22;13225;47.804;12.116;2023-04-25T02:10:59;7.50;99.90
25280;DHT22;13225;47.804;12.116;2023-04-25T02:13:25;7.40;99.90
25280;DHT22;13225;47.804;12.116;2023-04-25T02:15:50;7.40;99.90
25280;DHT22;13225;47.804;12.116;2023-04-25T02:18:16;7.40;99.90
25280;DHT22;13225;47.804;12.116;2023-04-25T02:20:42;7.30;99.90
25280;DHT22;13225;47.804;12.116;2023-04-25T02:23:08;7.30;99.90
25280;DHT22;13225;47.804;12.116;2023-04-25T02:25:33;7.20;99.90
25280;DHT22;13225;47.804;12.116;2023-04-25T02:27:59;7.10;99.90
25280;DHT22;13225;47.804;12.116;2023-04-25T02:30:25;7.10;99.90
25280;DHT22;13225;47.804;12.116;2023-04-25T02:32:50;7.00;99.90
25280;DHT22;13225;47.804;12.116;2023-04-25T02:35:16;6.90;99.90
25280;DHT22;13225;47.804;12.116;2023-04-25T02:37:42;6.90;99.90
25280;DHT22;13225;47.804;12.116;2023-04-25T02:40:08;6.80;99.90
25280;DHT22;13225;47.804;12.116;2023-04-25T02:42:34;6.80;99.90
25280;DHT22;13225;47.804;12.116;2023-04-25T02:45:00;6.80;99.90
25280;DHT22;13225;47.804;12.116;2023-04-25T02:47:26;6.80;99.90
25280;DHT22;13225;47.804;12.116;2023-04-25T02:49:51;6.80;99.90
25280;DHT22;13225;47.804;12.116;2023-04-25T02:52:17;6.80;99.90
25280;DHT22;13225;47.804;12.116;2023-04-25T02:54:42;6.90;99.90
25280;DHT22;13225;47.804;12.116;2023-04-25T02:57:08;6.90;99.90
25280;DHT22;13225;47.804;12.116;2023-04-25T02:59:34;7.00;99.90
25280;DHT22;13225;47.804;12.116;2023-04-25T03:02:00;7.00;99.90
25280;DHT22;13225;47.804;12.116;2023-04-25T03:04:26;7.00;99.90
25280;DHT22;13225;47.804;12.116;2023-04-25T03:06:52;7.00;99.90
25280;DHT22;13225;47.804;12.116;2023-04-25T03:09:18;7.00;99.90
25280;DHT22;13225;47.804;12.116;2023-04-25T03:11:44;7.10;99.90
25280;DHT22;13225;47.804;12.116;2023-04-25T03:14:10;7.10;99.90
25280;DHT22;13225;47.804;12.116;2023-04-25T03:16:36;7.10;99.90
25280;DHT22;13225;47.804;12.116;2023-04-25T03:19:03;7.10;99.90
25280;DHT22;13225;47.804;12.116;2023-04-25T03:21:29;7.10;99.90
25280;DHT22;13225;47.804;12.116;2023-04-25T03:23:57;7.10;99.90
25280;DHT22;13225;47.804;12.116;2023-04-25T03:26:23;7.10;99.90
25280;DHT22;13225;47.804;12.116;2023-04-25T03:28:48;7.20;99.90
25280;DHT22;13225;47.804;12.116;2023-04-25T03:31:14;7.20;99.90
25280;DHT22;13225;47.804;12.116;2023-04-25T03:33:40;7.20;99.90
25280;DHT22;13225;47.804;12.116;2023-04-25T03:36:06;7.20;99.90
25280;DHT22;13225;47.804;12.116;2023-04-25T03:38:31;7.20;99.90
25280;DHT22;13225;47.804;12.116;2023-04-25T03:40:57;7.20;99.90
25280;DHT22;13225;47.804;12.116;2023-04-25T03:43:23;7.20;99.90
25280;DHT22;13225;47.804;12.116;2023-04-25T03:45:48;7.20;99.90
25280;DHT22;13225;47.804;12.116;2023-04-25T03:48:14;7.20;99.90
25280;DHT22;13225;47.804;12.116;2023-04-25T03:50:39;7.20;99.90
25280;DHT22;13225;47.804;12.116;2023-04-25T03:53:05;7.20;99.90
25280;DHT22;13225;47.804;12.116;2023-04-25T03:55:31;7.20;99.90
25280;DHT22;13225;47.804;12.116;2023-04-25T03:57:57;7.20;99.90
25280;DHT22;13225;47.804;12.116;2023-04-25T04:00:24;7.20;99.90
25280;DHT22;13225;47.804;12.116;2023-04-25T04:02:49;7.20;99.90
25280;DHT22;13225;47.804;12.116;2023-04-25T04:05:15;7.20;99.90
25280;DHT22;13225;47.804;12.116;2023-04-25T04:07:41;7.20;99.90
25280;DHT22;13225;47.804;12.116;2023-04-25T04:10:11;7.20;99.90
25280;DHT22;13225;47.804;12.116;2023-04-25T04:12:37;7.20;99.90
25280;DHT22;13225;47.804;12.116;2023-04-25T04:15:04;7.20;99.90
25280;DHT22;13225;47.804;12.116;2023-04-25T04:17:30;7.20;99.90
25280;DHT22;13225;47.804;12.116;2023-04-25T04:19:56;7.30;99.90
25280;DHT22;13225;47.804;12.116;2023-04-25T04:22:22;7.30;99.90
25280;DHT22;13225;47.804;12.116;2023-04-25T04:24:48;7.30;99.90
25280;DHT22;13225;47.804;12.116;2023-04-25T04:27:18;7.40;99.90
25280;DHT22;13225;47.804;12.116;2023-04-25T04:29:45;7.50;99.90
25280;DHT22;13225;47.804;12.116;2023-04-25T04:32:12;7.50;99.90
25280;DHT22;13225;47.804;12.116;2023-04-25T04:34:37;7.50;99.90
25280;DHT22;13225;47.804;12.116;2023-04-25T04:37:05;7.40;99.90
25280;DHT22;13225;47.804;12.116;2023-04-25T04:39:32;7.30;99.90
25280;DHT22;13225;47.804;12.116;2023-04-25T04:41:58;7.30;99.90
25280;DHT22;13225;47.804;12.116;2023-04-25T04:44:24;7.20;99.90
25280;DHT22;13225;47.804;12.116;2023-04-25T04:46:50;7.20;99.90
25280;DHT22;13225;47.804;12.116;2023-04-25T04:49:16;7.10;99.90
25280;DHT22;13225;47.804;12.116;2023-04-25T04:51:43;7.20;99.90
25280;DHT22;13225;47.804;12.116;2023-04-25T04:54:10;7.20;99.90
25280;DHT22;13225;47.804;12.116;2023-04-25T04:56:35;7.20;99.90
25280;DHT22;13225;47.804;12.116;2023-04-25T04:59:01;7.20;99.90
25280;DHT22;13225;47.804;12.116;2023-04-25T05:01:28;7.20;99.90
25280;DHT22;13225;47.804;12.116;2023-04-25T05:03:55;7.20;99.90
25280;DHT22;13225;47.804;12.116;2023-04-25T05:06:25;7.30;99.90
25280;DHT22;13225;47.804;12.116;2023-04-25T05:08:51;7.30;99.90
25280;DHT22;13225;47.804;12.116;2023-04-25T05:11:18;7.30;99.90
25280;DHT22;13225;47.804;12.116;2023-04-25T05:13:44;7.30;99.90
25280;DHT22;13225;47.804;12.116;2023-04-25T05:16:11;7.30;99.90
25280;DHT22;13225;47.804;12.116;2023-04-25T05:18:36;7.40;99.90
25280;DHT22;13225;47.804;12.116;2023-04-25T05:21:02;7.40;99.90
25280;DHT22;13225;47.804;12.116;2023-04-25T05:23:28;7.30;99.90
25280;DHT22;13225;47.804;12.116;2023-04-25T05:25:54;7.30;99.90
25280;DHT22;13225;47.804;12.116;2023-04-25T05:28:20;7.30;99.90
25280;DHT22;13225;47.804;12.116;2023-04-25T05:30:46;7.30;99.90
25280;DHT22;13225;47.804;12.116;2023-04-25T05:33:12;7.30;99.90
25280;DHT22;13225;47.804;12.116;2023-04-25T05:35:37;7.30;99.90
25280;DHT22;13225;47.804;12.116;2023-04-25T05:38:03;7.30;99.90
25280;DHT22;13225;47.804;12.116;2023-04-25T05:40:28;7.30;99.90
25280;DHT22;13225;47.804;12.116;2023-04-25T05:42:54;7.30;99.90
25280;DHT22;13225;47.804;12.116;2023-04-25T05:45:20;7.30;99.90
25280;DHT22;13225;47.804;12.116;2023-04-25T05:47:45;7.30;99.90
25280;DHT22;13225;47.804;12.116;2023-04-25T05:50:11;7.40;99.90
25280;DHT22;13225;47.804;12.116;2023-04-25T05:52:36;7.50;99.90
25280;DHT22;13225;47.804;12.116;2023-04-25T05:55:02;7.50;99.90
25280;DHT22;13225;47.804;12.116;2023-04-25T05:57:27;7.50;99.90
25280;DHT22;13225;47.804;12.116;2023-04-25T05:59:53;7.50;99.90
25280;DHT22;13225;47.804;12.116;2023-04-25T06:02:20;7.50;99.90
25280;DHT22;13225;47.804;12.116;2023-04-25T06:04:46;7.20;99.90
25280;DHT22;13225;47.804;12.116;2023-04-25T06:07:12;7.00;99.90
25280;DHT22;13225;47.804;12.116;2023-04-25T06:09:38;7.00;99.90
25280;DHT22;13225;47.804;12.116;2023-04-25T06:12:05;6.90;99.90
25280;DHT22;13225;47.804;12.116;2023-04-25T06:14:31;7.10;99.90
25280;DHT22;13225;47.804;12.116;2023-04-25T06:16:56;7.20;99.90
25280;DHT22;13225;47.804;12.116;2023-04-25T06:19:22;7.40;99.90
25280;DHT22;13225;47.804;12.116;2023-04-25T06:21:47;7.60;99.90
25280;DHT22;13225;47.804;12.116;2023-04-25T06:24:13;7.80;99.90
25280;DHT22;13225;47.804;12.116;2023-04-25T06:26:39;7.90;99.90
25280;DHT22;13225;47.804;12.116;2023-04-25T06:29:04;8.10;99.90
25280;DHT22;13225;47.804;12.116;2023-04-25T06:31:30;8.10;99.90
25280;DHT22;13225;47.804;12.116;2023-04-25T06:33:57;8.00;99.90
25280;DHT22;13225;47.804;12.116;2023-04-25T06:36:23;8.20;99.90
25280;DHT22;13225;47.804;12.116;2023-04-25T06:38:53;8.40;99.90
25280;DHT22;13225;47.804;12.116;2023-04-25T06:41:20;8.60;99.90
25280;DHT22;13225;47.804;12.116;2023-04-25T06:43:46;8.70;99.90
25280;DHT22;13225;47.804;12.116;2023-04-25T06:46:11;8.80;99.90
25280;DHT22;13225;47.804;12.116;2023-04-25T06:48:37;9.00;99.90
25280;DHT22;13225;47.804;12.116;2023-04-25T06:51:03;9.10;99.90
25280;DHT22;13225;47.804;12.116;2023-04-25T06:53:29;9.20;99.90
25280;DHT22;13225;47.804;12.116;2023-04-25T06:55:54;9.20;99.90
25280;DHT22;13225;47.804;12.116;2023-04-25T06:58:20;9.10;99.90
25280;DHT22;13225;47.804;12.116;2023-04-25T07:00:46;9.10;99.90
25280;DHT22;13225;47.804;12.116;2023-04-25T07:03:11;9.20;99.90
25280;DHT22;13225;47.804;12.116;2023-04-25T07:05:37;9.40;99.90
25280;DHT22;13225;47.804;12.116;2023-04-25T07:08:03;9.20;99.90
25280;DHT22;13225;47.804;12.116;2023-04-25T07:10:29;9.20;99.90
25280;DHT22;13225;47.804;12.116;2023-04-25T07:12:55;9.00;99.90
25280;DHT22;13225;47.804;12.116;2023-04-25T07:15:20;9.00;99.90
25280;DHT22;13225;47.804;12.116;2023-04-25T07:17:46;9.10;99.90
25280;DHT22;13225;47.804;12.116;2023-04-25T07:20:12;9.20;99.90
25280;DHT22;13225;47.804;12.116;2023-04-25T07:22:37;9.30;99.90
25280;DHT22;13225;47.804;12.116;2023-04-25T07:25:03;9.20;99.90
25280;DHT22;13225;47.804;12.116;2023-04-25T07:27:29;9.20;99.90
25280;DHT22;13225;47.804;12.116;2023-04-25T07:29:55;9.60;99.90
25280;DHT22;13225;47.804;12.116;2023-04-25T07:32:21;9.90;99.90
25280;DHT22;13225;47.804;12.116;2023-04-25T07:34:46;10.20;99.90
25280;DHT22;13225;47.804;12.116;2023-04-25T07:37:12;10.20;99.90
25280;DHT22;13225;47.804;12.116;2023-04-25T07:39:39;10.50;99.90
25280;DHT22;13225;47.804;12.116;2023-04-25T07:42:05;10.60;99.90
25280;DHT22;13225;47.804;12.116;2023-04-25T07:44:33;10.80;99.90
25280;DHT22;13225;47.804;12.116;2023-04-25T07:47:04;11.00;99.90
25280;DHT22;13225;47.804;12.116;2023-04-25T07:49:30;10.90;99.90
25280;DHT22;13225;47.804;12.116;2023-04-25T07:51:56;10.90;99.90
25280;DHT22;13225;47.804;12.116;2023-04-25T07:54:21;10.90;99.90
25280;DHT22;13225;47.804;12.116;2023-04-25T07:56:47;10.90;99.90
25280;DHT22;13225;47.804;12.116;2023-04-25T07:59:12;10.50;99.90
25280;DHT22;13225;47.804;12.116;2023-04-25T08:01:38;10.60;99.90
25280;DHT22;13225;47.804;12.116;2023-04-25T08:04:04;10.80;99.90
25280;DHT22;13225;47.804;12.116;2023-04-25T08:06:29;10.90;99.90
25280;DHT22;13225;47.804;12.116;2023-04-25T08:08:55;11.20;99.90
25280;DHT22;13225;47.804;12.116;2023-04-25T08:11:20;11.30;99.90
25280;DHT22;13225;47.804;12.116;2023-04-25T08:13:46;11.40;99.90
25280;DHT22;13225;47.804;12.116;2023-04-25T08:16:12;11.20;99.90
25280;DHT22;13225;47.804;12.116;2023-04-25T08:18:37;11.50;99.90
25280;DHT22;13225;47.804;12.116;2023-04-25T08:21:03;11.60;99.90
25280;DHT22;13225;47.804;12.116;2023-04-25T08:23:29;11.50;99.90
25280;DHT22;13225;47.804;12.116;2023-04-25T08:25:54;11.60;99.90
25280;DHT22;13225;47.804;12.116;2023-04-25T08:28:20;11.40;99.90
25280;DHT22;13225;47.804;12.116;2023-04-25T08:30:46;11.50;99.90
25280;DHT22;13225;47.804;12.116;2023-04-25T08:33:11;11.40;99.90
25280;DHT22;13225;47.804;12.116;2023-04-25T08:35:37;11.40;99.90
25280;DHT22;13225;47.804;12.116;2023-04-25T08:38:02;11.20;99.90
25280;DHT22;13225;47.804;12.116;2023-04-25T08:40:28;10.90;99.90
25280;DHT22;13225;47.804;12.116;2023-04-25T08:42:57;10.90;99.90
25280;DHT22;13225;47.804;12.116;2023-04-25T08:45:23;10.90;99.90
25280;DHT22;13225;47.804;12.116;2023-04-25T08:47:51;11.00;99.90
25280;DHT22;13225;47.804;12.116;2023-04-25T08:50:18;11.00;99.90
25280;DHT22;13225;47.804;12.116;2023-04-25T08:52:47;10.70;99.90
25280;DHT22;13225;47.804;12.116;2023-04-25T08:55:14;10.50;99.90
25280;DHT22;13225;47.804;12.116;2023-04-25T08:57:42;10.40;99.90
25280;DHT22;13225;47.804;12.116;2023-04-25T09:00:11;10.50;99.90
25280;DHT22;13225;47.804;12.116;2023-04-25T09:02:39;10.50;99.90
25280;DHT22;13225;47.804;12.116;2023-04-25T09:05:05;10.50;99.90
25280;DHT22;13225;47.804;12.116;2023-04-25T09:07:32;10.60;99.90
25280;DHT22;13225;47.804;12.116;2023-04-25T09:09:58;10.50;99.90
25280;DHT22;13225;47.804;12.116;2023-04-25T09:12:27;10.40;99.90
25280;DHT22;13225;47.804;12.116;2023-04-25T09:15:06;10.30;99.90
25280;DHT22;13225;47.804;12.116;2023-04-25T09:17:32;10.30;99.90
25280;DHT22;13225;47.804;12.116;2023-04-25T09:20:09;10.30;99.90
25280;DHT22;13225;47.804;12.116;2023-04-25T09:22:36;10.80;99.90
25280;DHT22;13225;47.804;12.116;2023-04-25T09:25:09;11.30;99.90
25280;DHT22;13225;47.804;12.116;2023-04-25T09:27:35;11.60;99.90
25280;DHT22;13225;47.804;12.116;2023-04-25T09:30:02;11.80;99.90
25280;DHT22;13225;47.804;12.116;2023-04-25T09:32:28;12.00;99.90
25280;DHT22;13225;47.804;12.116;2023-04-25T09:34:55;12.00;99.90
25280;DHT22;13225;47.804;12.116;2023-04-25T09:37:23;11.70;99.90
25280;DHT22;13225;47.804;12.116;2023-04-25T09:39:52;11.30;99.90
25280;DHT22;13225;47.804;12.116;2023-04-25T09:42:18;11.10;99.90
25280;DHT22;13225;47.804;12.116;2023-04-25T09:44:47;11.00;99.90
25280;DHT22;13225;47.804;12.116;2023-04-25T09:47:15;10.60;99.90
25280;DHT22;13225;47.804;12.116;2023-04-25T09:49:42;10.30;99.90
25280;DHT22;13225;47.804;12.116;2023-04-25T09:52:42;10.00;99.90
25280;DHT22;13225;47.804;12.116;2023-04-25T09:55:00;9.30;99.90
25280;DHT22;13225;47.804;12.116;2023-04-25T09:57:26;9.10;99.90
25280;DHT22;13225;47.804;12.116;2023-04-25T09:59:53;9.30;99.90
25280;DHT22;13225;47.804;12.116;2023-04-25T10:02:22;9.50;99.90
25280;DHT22;13225;47.804;12.116;2023-04-25T10:04:49;10.00;99.90
25280;DHT22;13225;47.804;12.116;2023-04-25T10:07:18;10.40;99.90
25280;DHT22;13225;47.804;12.116;2023-04-25T10:09:48;10.60;99.90
25280;DHT22;13225;47.804;12.116;2023-04-25T10:12:15;10.90;99.90
25280;DHT22;13225;47.804;12.116;2023-04-25T10:14:42;11.40;99.90
25280;DHT22;13225;47.804;12.116;2023-04-25T10:17:10;11.90;99.90
25280;DHT22;13225;47.804;12.116;2023-04-25T10:19:35;12.60;99.90
25280;DHT22;13225;47.804;12.116;2023-04-25T10:22:13;13.00;99.90
25280;DHT22;13225;47.804;12.116;2023-04-25T10:24:41;13.00;99.90
25280;DHT22;13225;47.804;12.116;2023-04-25T10:27:07;13.10;99.90
25280;DHT22;13225;47.804;12.116;2023-04-25T10:29:33;12.90;99.90
25280;DHT22;13225;47.804;12.116;2023-04-25T10:32:00;12.20;99.90
25280;DHT22;13225;47.804;12.116;2023-04-25T10:34:39;12.60;99.90
25280;DHT22;13225;47.804;12.116;2023-04-25T10:37:08;12.60;99.90
25280;DHT22;13225;47.804;12.116;2023-04-25T10:39:34;12.20;99.90
25280;DHT22;13225;47.804;12.116;2023-04-25T10:42:01;12.40;99.90
25280;DHT22;13225;47.804;12.116;2023-04-25T10:44:30;12.40;99.90
25280;DHT22;13225;47.804;12.116;2023-04-25T10:46:57;12.90;99.90
25280;DHT22;13225;47.804;12.116;2023-04-25T10:49:34;13.30;99.90
25280;DHT22;13225;47.804;12.116;2023-04-25T10:54:49;14.10;99.90
25280;DHT22;13225;47.804;12.116;2023-04-25T11:00:08;13.10;99.90
25280;DHT22;13225;47.804;12.116;2023-04-25T11:02:53;13.00;99.90
25280;DHT22;13225;47.804;12.116;2023-04-25T11:07:51;13.10;99.90
25280;DHT22;13225;47.804;12.116;2023-04-25T11:10:18;13.00;99.90
25280;DHT22;13225;47.804;12.116;2023-04-25T11:12:45;13.40;99.90
25280;DHT22;13225;47.804;12.116;2023-04-25T11:15:12;14.00;99.90
25280;DHT22;13225;47.804;12.116;2023-04-25T11:17:38;13.90;99.90
25280;DHT22;13225;47.804;12.116;2023-04-25T11:20:07;14.00;99.90
25280;DHT22;13225;47.804;12.116;2023-04-25T11:22:35;14.40;99.90
25280;DHT22;13225;47.804;12.116;2023-04-25T11:25:05;14.00;99.90
25280;DHT22;13225;47.804;12.116;2023-04-25T11:27:31;14.10;99.90
25280;DHT22;13225;47.804;12.116;2023-04-25T11:29:57;14.20;99.90
25280;DHT22;13225;47.804;12.116;2023-04-25T11:32:23;14.20;99.90
25280;DHT22;13225;47.804;12.116;2023-04-25T11:34:49;14.10;99.90
25280;DHT22;13225;47.804;12.116;2023-04-25T11:37:14;14.00;99.90
25280;DHT22;13225;47.804;12.116;2023-04-25T11:39:44;13.20;99.90
25280;DHT22;13225;47.804;12.116;2023-04-25T11:42:11;13.00;99.90
25280;DHT22;13225;47.804;12.116;2023-04-25T11:44:39;13.00;99.90
25280;DHT22;13225;47.804;12.116;2023-04-25T11:47:05;12.90;99.90
25280;DHT22;13225;47.804;12.116;2023-04-25T11:49:31;13.10;99.90
25280;DHT22;13225;47.804;12.116;2023-04-25T11:51:57;13.00;99.90
25280;DHT22;13225;47.804;12.116;2023-04-25T11:54:23;12.30;99.90
25280;DHT22;13225;47.804;12.116;2023-04-25T11:56:48;12.10;99.90
25280;DHT22;13225;47.804;12.116;2023-04-25T11:59:14;10.80;99.90
25280;DHT22;13225;47.804;12.116;2023-04-25T12:01:49;8.30;99.90
25280;DHT22;13225;47.804;12.116;2023-04-25T12:04:22;6.70;99.90
25280;DHT22;13225;47.804;12.116;2023-04-25T12:06:52;6.50;99.90
25280;DHT22;13225;47.804;12.116;2023-04-25T12:09:20;6.60;99.90
25280;DHT22;13225;47.804;12.116;2023-04-25T12:11:53;6.70;99.90
25280;DHT22;13225;47.804;12.116;2023-04-25T12:14:25;6.80;99.90
25280;DHT22;13225;47.804;12.116;2023-04-25T12:16:52;7.00;99.90
25280;DHT22;13225;47.804;12.116;2023-04-25T12:19:19;7.00;99.90
25280;DHT22;13225;47.804;12.116;2023-04-25T12:21:46;7.10;99.90
25280;DHT22;13225;47.804;12.116;2023-04-25T12:24:17;7.20;99.90
25280;DHT22;13225;47.804;12.116;2023-04-25T12:26:50;7.40;99.90
25280;DHT22;13225;47.804;12.116;2023-04-25T12:29:22;7.60;99.90
25280;DHT22;13225;47.804;12.116;2023-04-25T12:31:49;7.60;99.90
25280;DHT22;13225;47.804;12.116;2023-04-25T12:34:15;7.70;99.90
25280;DHT22;13225;47.804;12.116;2023-04-25T12:36:41;7.70;99.90
25280;DHT22;13225;47.804;12.116;2023-04-25T12:39:06;7.90;99.90
25280;DHT22;13225;47.804;12.116;2023-04-25T12:41:33;8.10;99.90
25280;DHT22;13225;47.804;12.116;2023-04-25T12:43:59;8.40;99.90
25280;DHT22;13225;47.804;12.116;2023-04-25T12:46:24;8.60;99.90
25280;DHT22;13225;47.804;12.116;2023-04-25T12:48:50;8.60;99.90
25280;DHT22;13225;47.804;12.116;2023-04-25T12:51:16;8.70;99.90
25280;DHT22;13225;47.804;12.116;2023-04-25T12:53:41;8.50;99.90
25280;DHT22;13225;47.804;12.116;2023-04-25T12:56:08;8.40;99.90
25280;DHT22;13225;47.804;12.116;2023-04-25T12:58:33;8.40;99.90
25280;DHT22;13225;47.804;12.116;2023-04-25T13:00:59;8.50;99.90
25280;DHT22;13225;47.804;12.116;2023-04-25T13:03:25;8.50;99.90
25280;DHT22;13225;47.804;12.116;2023-04-25T13:05:51;8.80;99.90
25280;DHT22;13225;47.804;12.116;2023-04-25T13:08:18;9.40;99.90
25280;DHT22;13225;47.804;12.116;2023-04-25T13:10:44;10.20;99.90
25280;DHT22;13225;47.804;12.116;2023-04-25T13:13:09;10.50;99.90
25280;DHT22;13225;47.804;12.116;2023-04-25T13:15:35;10.40;99.90
25280;DHT22;13225;47.804;12.116;2023-04-25T13:18:03;10.50;99.90
25280;DHT22;13225;47.804;12.116;2023-04-25T13:20:28;10.30;99.90
25280;DHT22;13225;47.804;12.116;2023-04-25T13:22:54;9.90;99.90
25280;DHT22;13225;47.804;12.116;2023-04-25T13:25:20;10.50;99.90
25280;DHT22;13225;47.804;12.116;2023-04-25T13:27:47;10.80;99.90
25280;DHT22;13225;47.804;12.116;2023-04-25T13:30:12;11.50;99.90
25280;DHT22;13225;47.804;12.116;2023-04-25T13:32:38;12.20;99.90
25280;DHT22;13225;47.804;12.116;2023-04-25T13:35:06;12.00;99.90
25280;DHT22;13225;47.804;12.116;2023-04-25T13:37:38;11.50;99.90
25280;DHT22;13225;47.804;12.116;2023-04-25T13:40:08;10.70;99.90
25280;DHT22;13225;47.804;12.116;2023-04-25T13:42:35;10.20;99.90
25280;DHT22;13225;47.804;12.116;2023-04-25T13:45:02;10.20;99.90
25280;DHT22;13225;47.804;12.116;2023-04-25T13:47:29;9.70;99.90
25280;DHT22;13225;47.804;12.116;2023-04-25T13:49:55;9.40;99.90
25280;DHT22;13225;47.804;12.116;2023-04-25T13:52:21;9.40;99.90
25280;DHT22;13225;47.804;12.116;2023-04-25T13:57:15;8.30;99.90
25280;DHT22;13225;47.804;12.116;2023-04-25T13:59:41;8.20;99.90
25280;DHT22;13225;47.804;12.116;2023-04-25T14:02:07;8.20;99.90
25280;DHT22;13225;47.804;12.116;2023-04-25T14:04:33;8.30;99.90
25280;DHT22;13225;47.804;12.116;2023-04-25T14:06:58;8.70;99.90
25280;DHT22;13225;47.804;12.116;2023-04-25T14:09:25;9.10;99.90
25280;DHT22;13225;47.804;12.116;2023-04-25T14:11:54;9.50;99.90
25280;DHT22;13225;47.804;12.116;2023-04-25T14:14:20;10.00;99.90
25280;DHT22;13225;47.804;12.116;2023-04-25T14:16:47;10.00;99.90
25280;DHT22;13225;47.804;12.116;2023-04-25T14:19:16;10.10;99.90
25280;DHT22;13225;47.804;12.116;2023-04-25T14:21:42;10.00;99.90
25280;DHT22;13225;47.804;12.116;2023-04-25T14:24:10;9.80;99.90
25280;DHT22;13225;47.804;12.116;2023-04-25T14:26:36;9.90;99.90
25280;DHT22;13225;47.804;12.116;2023-04-25T14:29:04;9.60;99.90
25280;DHT22;13225;47.804;12.116;2023-04-25T14:31:30;9.20;99.90
25280;DHT22;13225;47.804;12.116;2023-04-25T14:33:55;9.10;99.90
25280;DHT22;13225;47.804;12.116;2023-04-25T14:36:21;8.90;99.90
25280;DHT22;13225;47.804;12.116;2023-04-25T14:38:47;8.60;99.90
25280;DHT22;13225;47.804;12.116;2023-04-25T14:41:12;8.30;99.90
25280;DHT22;13225;47.804;12.116;2023-04-25T14:43:38;8.10;99.90
25280;DHT22;13225;47.804;12.116;2023-04-25T14:46:05;8.10;99.90
25280;DHT22;13225;47.804;12.116;2023-04-25T14:48:32;7.70;99.90
25280;DHT22;13225;47.804;12.116;2023-04-25T14:50:57;7.50;99.90
25280;DHT22;13225;47.804;12.116;2023-04-25T14:53:23;7.60;99.90
25280;DHT22;13225;47.804;12.116;2023-04-25T14:55:49;7.10;99.90
25280;DHT22;13225;47.804;12.116;2023-04-25T14:58:15;7.10;99.90
25280;DHT22;13225;47.804;12.116;2023-04-25T15:00:41;7.20;99.90
25280;DHT22;13225;47.804;12.116;2023-04-25T15:03:06;7.20;99.90
25280;DHT22;13225;47.804;12.116;2023-04-25T15:05:33;7.30;99.90
25280;DHT22;13225;47.804;12.116;2023-04-25T15:07:59;7.40;99.90
25280;DHT22;13225;47.804;12.116;2023-04-25T15:10:25;7.80;99.90
25280;DHT22;13225;47.804;12.116;2023-04-25T15:12:51;7.80;99.90
25280;DHT22;13225;47.804;12.116;2023-04-25T15:15:18;8.00;99.90
25280;DHT22;13225;47.804;12.116;2023-04-25T15:17:44;8.00;99.90
25280;DHT22;13225;47.804;12.116;2023-04-25T15:20:12;8.20;99.90
25280;DHT22;13225;47.804;12.116;2023-04-25T15:22:40;8.30;99.90
25280;DHT22;13225;47.804;12.116;2023-04-25T15:25:06;8.30;99.90
25280;DHT22;13225;47.804;12.116;2023-04-25T15:27:34;8.10;99.90
25280;DHT22;13225;47.804;12.116;2023-04-25T15:30:04;8.10;99.90
25280;DHT22;13225;47.804;12.116;2023-04-25T15:32:30;7.90;99.90